sensor_id;sensor_type;location;lat;lon;timestamp;P1;durP1;ratioP1;P2;durP2;ratioP2
21120;SDS011;12519;43.318;21.898;2024-01-27T00:03:07;70.0;;;52.0;;
21120;SDS011;12519;43.318;21.898;2024-01-27T00:07:43;70.0;;;52.0;;
21120;SDS011;12519;43.318;21.898;2024-01-27T00:12:19;73.0;;;56.0;;
21120;SDS011;12519;43.318;21.898;2024-01-27T00:16:55;73.0;;;56.0;;
21120;SDS011;12519;43.318;21.898;2024-01-27T00:21:31;69.0;;;56.0;;
21120;SDS011;12519;43.318;21.898;2024-01-27T00:26:08;69.0;;;56.0;;
21120;SDS011;12519;43.318;21.898;2024-01-27T00:30:44;65.0;;;56.0;;
21120;SDS011;12519;43.318;21.898;2024-01-27T00:35:20;65.0;;;56.0;;
21120;SDS011;12519;43.318;21.898;2024-01-27T00:39:56;58.0;;;52.0;;
21120;SDS011;12519;43.318;21.898;2024-01-27T00:44:32;58.0;;;52.0;;
21120;SDS011;12519;43.318;21.898;2024-01-27T00:49:08;52.0;;;47.0;;
21120;SDS011;12519;43.318;21.898;2024-01-27T00:53:44;52.0;;;47.0;;
21120;SDS011;12519;43.318;21.898;2024-01-27T00:58:20;52.0;;;47.0;;
21120;SDS011;12519;43.318;21.898;2024-01-27T01:02:56;44.0;;;38.0;;
21120;SDS011;12519;43.318;21.898;2024-01-27T01:07:32;44.0;;;38.0;;
21120;SDS011;12519;43.318;21.898;2024-01-27T01:12:09;37.0;;;29.0;;
21120;SDS011;12519;43.318;21.898;2024-01-27T01:16:45;37.0;;;29.0;;
21120;SDS011;12519;43.318;21.898;2024-01-27T01:21:22;32.0;;;26.0;;
21120;SDS011;12519;43.318;21.898;2024-01-27T01:25:58;32.0;;;26.0;;
21120;SDS011;12519;43.318;21.898;2024-01-27T01:30:35;27.0;;;22.0;;
21120;SDS011;12519;43.318;21.898;2024-01-27T01:35:14;27.0;;;22.0;;
21120;SDS011;12519;43.318;21.898;2024-01-27T01:39:51;29.0;;;26.0;;
21120;SDS011;12519;43.318;21.898;2024-01-27T01:44:29;29.0;;;26.0;;
21120;SDS011;12519;43.318;21.898;2024-01-27T01:49:07;31.0;;;29.0;;
21120;SDS011;12519;43.318;21.898;2024-01-27T01:53:43;31.0;;;29.0;;
21120;SDS011;12519;43.318;21.898;2024-01-27T01:58:30;31.0;;;29.0;;
21120;SDS011;12519;43.318;21.898;2024-01-27T02:03:09;38.0;;;28.0;;
21120;SDS011;12519;43.318;21.898;2024-01-27T02:07:47;38.0;;;28.0;;
21120;SDS011;12519;43.318;21.898;2024-01-27T02:12:23;45.0;;;27.0;;
21120;SDS011;12519;43.318;21.898;2024-01-27T02:16:59;45.0;;;27.0;;
21120;SDS011;12519;43.318;21.898;2024-01-27T02:21:35;41.0;;;26.0;;
21120;SDS011;12519;43.318;21.898;2024-01-27T02:26:11;41.0;;;26.0;;
21120;SDS011;12519;43.318;21.898;2024-01-27T02:30:47;37.0;;;26.0;;
21120;SDS011;12519;43.318;21.898;2024-01-27T02:35:23;37.0;;;26.0;;
21120;SDS011;12519;43.318;21.898;2024-01-27T02:40:01;35.0;;;27.0;;
21120;SDS011;12519;43.318;21.898;2024-01-27T02:44:40;35.0;;;27.0;;
21120;SDS011;12519;43.318;21.898;2024-01-27T02:49:16;33.0;;;28.0;;
21120;SDS011;12519;43.318;21.898;2024-01-27T02:53:52;33.0;;;28.0;;
21120;SDS011;12519;43.318;21.898;2024-01-27T02:58:29;33.0;;;28.0;;
21120;SDS011;12519;43.318;21.898;2024-01-27T03:03:05;36.0;;;30.0;;
21120;SDS011;12519;43.318;21.898;2024-01-27T03:07:41;36.0;;;30.0;;
21120;SDS011;12519;43.318;21.898;2024-01-27T03:12:17;39.0;;;31.0;;
21120;SDS011;12519;43.318;21.898;2024-01-27T03:16:53;39.0;;;31.0;;
21120;SDS011;12519;43.318;21.898;2024-01-27T03:21:29;44.0;;;35.0;;
21120;SDS011;12519;43.318;21.898;2024-01-27T03:26:05;44.0;;;35.0;;
21120;SDS011;12519;43.318;21.898;2024-01-27T03:30:41;50.0;;;39.0;;
21120;SDS011;12519;43.318;21.898;2024-01-27T03:35:17;50.0;;;39.0;;
21120;SDS011;12519;43.318;21.898;2024-01-27T03:39:53;46.0;;;36.0;;
21120;SDS011;12519;43.318;21.898;2024-01-27T03:44:29;46.0;;;36.0;;
21120;SDS011;12519;43.318;21.898;2024-01-27T03:49:05;46.0;;;36.0;;
21120;SDS011;12519;43.318;21.898;2024-01-27T03:53:41;42.0;;;34.0;;
21120;SDS011;12519;43.318;21.898;2024-01-27T03:58:17;42.0;;;34.0;;
21120;SDS011;12519;43.318;21.898;2024-01-27T04:02:54;39.0;;;33.0;;
21120;SDS011;12519;43.318;21.898;2024-01-27T04:07:30;39.0;;;33.0;;
21120;SDS011;12519;43.318;21.898;2024-01-27T04:12:07;36.0;;;32.0;;
21120;SDS011;12519;43.318;21.898;2024-01-27T04:16:44;36.0;;;32.0;;
21120;SDS011;12519;43.318;21.898;2024-01-27T04:21:20;40.0;;;32.0;;
21120;SDS011;12519;43.318;21.898;2024-01-27T04:25:56;40.0;;;32.0;;
21120;SDS011;12519;43.318;21.898;2024-01-27T04:30:32;45.0;;;33.0;;
21120;SDS011;12519;43.318;21.898;2024-01-27T04:35:09;45.0;;;33.0;;
21120;SDS011;12519;43.318;21.898;2024-01-27T04:39:46;40.0;;;28.0;;
21120;SDS011;12519;43.318;21.898;2024-01-27T04:44:22;40.0;;;28.0;;
21120;SDS011;12519;43.318;21.898;2024-01-27T04:48:58;40.0;;;28.0;;
21120;SDS011;12519;43.318;21.898;2024-01-27T04:53:34;36.0;;;24.0;;
21120;SDS011;12519;43.318;21.898;2024-01-27T04:58:10;36.0;;;24.0;;
21120;SDS011;12519;43.318;21.898;2024-01-27T05:02:46;30.0;;;20.0;;
21120;SDS011;12519;43.318;21.898;2024-01-27T05:07:22;30.0;;;20.0;;
21120;SDS011;12519;43.318;21.898;2024-01-27T05:11:59;23.0;;;17.0;;
21120;SDS011;12519;43.318;21.898;2024-01-27T05:16:36;23.0;;;17.0;;
21120;SDS011;12519;43.318;21.898;2024-01-27T05:21:12;19.0;;;15.0;;
21120;SDS011;12519;43.318;21.898;2024-01-27T05:25:48;19.0;;;15.0;;
21120;SDS011;12519;43.318;21.898;2024-01-27T05:30:24;15.0;;;13.0;;
21120;SDS011;12519;43.318;21.898;2024-01-27T05:35:00;15.0;;;13.0;;
21120;SDS011;12519;43.318;21.898;2024-01-27T05:39:38;17.0;;;14.0;;
21120;SDS011;12519;43.318;21.898;2024-01-27T05:44:14;17.0;;;14.0;;
21120;SDS011;12519;43.318;21.898;2024-01-27T05:48:50;17.0;;;14.0;;
21120;SDS011;12519;43.318;21.898;2024-01-27T05:53:28;19.0;;;15.0;;
21120;SDS011;12519;43.318;21.898;2024-01-27T05:58:04;19.0;;;15.0;;
21120;SDS011;12519;43.318;21.898;2024-01-27T06:02:40;19.0;;;16.0;;
21120;SDS011;12519;43.318;21.898;2024-01-27T06:07:16;19.0;;;16.0;;
21120;SDS011;12519;43.318;21.898;2024-01-27T06:11:51;19.0;;;17.0;;
21120;SDS011;12519;43.318;21.898;2024-01-27T06:16:27;19.0;;;17.0;;
21120;SDS011;12519;43.318;21.898;2024-01-27T06:21:05;23.0;;;20.0;;
21120;SDS011;12519;43.318;21.898;2024-01-27T06:25:42;23.0;;;20.0;;
21120;SDS011;12519;43.318;21.898;2024-01-27T06:30:18;27.0;;;23.0;;
21120;SDS011;12519;43.318;21.898;2024-01-27T06:34:56;27.0;;;23.0;;
21120;SDS011;12519;43.318;21.898;2024-01-27T06:39:32;27.0;;;23.0;;
21120;SDS011;12519;43.318;21.898;2024-01-27T06:44:08;30.0;;;24.0;;
21120;SDS011;12519;43.318;21.898;2024-01-27T06:48:45;30.0;;;24.0;;
21120;SDS011;12519;43.318;21.898;2024-01-27T06:53:21;33.0;;;26.0;;
21120;SDS011;12519;43.318;21.898;2024-01-27T06:57:57;33.0;;;26.0;;
21120;SDS011;12519;43.318;21.898;2024-01-27T07:02:33;66.0;;;52.0;;
21120;SDS011;12519;43.318;21.898;2024-01-27T07:07:10;66.0;;;52.0;;
21120;SDS011;12519;43.318;21.898;2024-01-27T07:11:46;100.0;;;78.0;;
21120;SDS011;12519;43.318;21.898;2024-01-27T07:16:23;100.0;;;78.0;;
21120;SDS011;12519;43.318;21.898;2024-01-27T07:20:59;54.0;;;43.0;;
21120;SDS011;12519;43.318;21.898;2024-01-27T07:25:36;54.0;;;43.0;;
21120;SDS011;12519;43.318;21.898;2024-01-27T07:30:12;9.0;;;8.0;;
21120;SDS011;12519;43.318;21.898;2024-01-27T07:34:50;9.0;;;8.0;;
21120;SDS011;12519;43.318;21.898;2024-01-27T07:39:26;9.0;;;8.0;;
21120;SDS011;12519;43.318;21.898;2024-01-27T07:44:06;11.0;;;10.0;;
21120;SDS011;12519;43.318;21.898;2024-01-27T07:48:44;11.0;;;10.0;;
21120;SDS011;12519;43.318;21.898;2024-01-27T07:53:20;13.0;;;12.0;;
21120;SDS011;12519;43.318;21.898;2024-01-27T07:57:57;13.0;;;12.0;;
21120;SDS011;12519;43.318;21.898;2024-01-27T08:02:33;11.0;;;10.0;;
21120;SDS011;12519;43.318;21.898;2024-01-27T08:07:09;11.0;;;10.0;;
21120;SDS011;12519;43.318;21.898;2024-01-27T08:11:45;9.0;;;8.0;;
21120;SDS011;12519;43.318;21.898;2024-01-27T08:16:22;9.0;;;8.0;;
21120;SDS011;12519;43.318;21.898;2024-01-27T08:20:58;8.0;;;7.0;;
21120;SDS011;12519;43.318;21.898;2024-01-27T08:25:35;8.0;;;7.0;;
21120;SDS011;12519;43.318;21.898;2024-01-27T08:30:11;8.0;;;6.0;;
21120;SDS011;12519;43.318;21.898;2024-01-27T08:34:50;8.0;;;6.0;;
21120;SDS011;12519;43.318;21.898;2024-01-27T08:39:26;8.0;;;6.0;;
21120;SDS011;12519;43.318;21.898;2024-01-27T08:44:02;8.0;;;6.0;;
21120;SDS011;12519;43.318;21.898;2024-01-27T08:48:39;8.0;;;6.0;;
21120;SDS011;12519;43.318;21.898;2024-01-27T08:53:16;8.0;;;7.0;;
21120;SDS011;12519;43.318;21.898;2024-01-27T08:57:52;8.0;;;7.0;;
21120;SDS011;12519;43.318;21.898;2024-01-27T09:02:28;8.0;;;6.0;;
21120;SDS011;12519;43.318;21.898;2024-01-27T09:07:04;8.0;;;6.0;;
21120;SDS011;12519;43.318;21.898;2024-01-27T09:11:40;7.0;;;6.0;;
21120;SDS011;12519;43.318;21.898;2024-01-27T09:16:18;7.0;;;6.0;;
21120;SDS011;12519;43.318;21.898;2024-01-27T09:20:54;8.0;;;6.0;;
21120;SDS011;12519;43.318;21.898;2024-01-27T09:25:31;8.0;;;6.0;;
21120;SDS011;12519;43.318;21.898;2024-01-27T09:30:07;10.0;;;6.0;;
21120;SDS011;12519;43.318;21.898;2024-01-27T09:34:46;10.0;;;6.0;;
21120;SDS011;12519;43.318;21.898;2024-01-27T09:39:22;10.0;;;6.0;;
21120;SDS011;12519;43.318;21.898;2024-01-27T09:43:59;8.0;;;5.0;;
21120;SDS011;12519;43.318;21.898;2024-01-27T09:48:40;8.0;;;5.0;;
21120;SDS011;12519;43.318;21.898;2024-01-27T09:53:19;5.0;;;4.0;;
21120;SDS011;12519;43.318;21.898;2024-01-27T09:57:55;5.0;;;4.0;;
21120;SDS011;12519;43.318;21.898;2024-01-27T10:02:32;6.0;;;6.0;;
21120;SDS011;12519;43.318;21.898;2024-01-27T10:07:11;6.0;;;6.0;;
21120;SDS011;12519;43.318;21.898;2024-01-27T10:11:47;7.0;;;7.0;;
21120;SDS011;12519;43.318;21.898;2024-01-27T10:16:25;7.0;;;7.0;;
21120;SDS011;12519;43.318;21.898;2024-01-27T10:21:11;6.0;;;6.0;;
21120;SDS011;12519;43.318;21.898;2024-01-27T10:25:49;6.0;;;6.0;;
21120;SDS011;12519;43.318;21.898;2024-01-27T10:30:27;5.0;;;5.0;;
21120;SDS011;12519;43.318;21.898;2024-01-27T10:35:04;5.0;;;5.0;;
21120;SDS011;12519;43.318;21.898;2024-01-27T10:39:43;5.0;;;5.0;;
21120;SDS011;12519;43.318;21.898;2024-01-27T10:44:19;6.0;;;5.0;;
21120;SDS011;12519;43.318;21.898;2024-01-27T10:48:56;6.0;;;5.0;;
21120;SDS011;12519;43.318;21.898;2024-01-27T10:53:38;7.0;;;5.0;;
21120;SDS011;12519;43.318;21.898;2024-01-27T10:58:24;7.0;;;5.0;;
21120;SDS011;12519;43.318;21.898;2024-01-27T11:03:04;6.0;;;6.0;;
21120;SDS011;12519;43.318;21.898;2024-01-27T11:07:46;6.0;;;6.0;;
21120;SDS011;12519;43.318;21.898;2024-01-27T11:12:23;6.0;;;6.0;;
21120;SDS011;12519;43.318;21.898;2024-01-27T11:17:03;6.0;;;6.0;;
21120;SDS011;12519;43.318;21.898;2024-01-27T11:21:40;6.0;;;6.0;;
21120;SDS011;12519;43.318;21.898;2024-01-27T11:26:17;6.0;;;6.0;;
21120;SDS011;12519;43.318;21.898;2024-01-27T11:31:02;7.0;;;7.0;;
21120;SDS011;12519;43.318;21.898;2024-01-27T11:35:42;7.0;;;7.0;;
21120;SDS011;12519;43.318;21.898;2024-01-27T11:40:19;7.0;;;7.0;;
21120;SDS011;12519;43.318;21.898;2024-01-27T11:44:55;6.0;;;6.0;;
21120;SDS011;12519;43.318;21.898;2024-01-27T11:49:31;6.0;;;6.0;;
21120;SDS011;12519;43.318;21.898;2024-01-27T11:54:09;5.0;;;5.0;;
21120;SDS011;12519;43.318;21.898;2024-01-27T11:58:46;5.0;;;5.0;;
21120;SDS011;12519;43.318;21.898;2024-01-27T12:03:25;6.0;;;5.0;;
21120;SDS011;12519;43.318;21.898;2024-01-27T12:08:01;6.0;;;5.0;;
21120;SDS011;12519;43.318;21.898;2024-01-27T12:12:42;6.0;;;5.0;;
21120;SDS011;12519;43.318;21.898;2024-01-27T12:17:19;6.0;;;5.0;;
21120;SDS011;12519;43.318;21.898;2024-01-27T12:21:59;6.0;;;5.0;;
21120;SDS011;12519;43.318;21.898;2024-01-27T12:26:36;6.0;;;5.0;;
21120;SDS011;12519;43.318;21.898;2024-01-27T12:31:13;6.0;;;5.0;;
21120;SDS011;12519;43.318;21.898;2024-01-27T12:35:53;6.0;;;5.0;;
21120;SDS011;12519;43.318;21.898;2024-01-27T12:40:29;6.0;;;5.0;;
21120;SDS011;12519;43.318;21.898;2024-01-27T12:45:07;6.0;;;5.0;;
21120;SDS011;12519;43.318;21.898;2024-01-27T12:49:44;6.0;;;5.0;;
21120;SDS011;12519;43.318;21.898;2024-01-27T12:54:21;5.0;;;5.0;;
21120;SDS011;12519;43.318;21.898;2024-01-27T12:58:57;5.0;;;5.0;;
21120;SDS011;12519;43.318;21.898;2024-01-27T13:03:33;4.0;;;4.0;;
21120;SDS011;12519;43.318;21.898;2024-01-27T13:08:10;4.0;;;4.0;;
21120;SDS011;12519;43.318;21.898;2024-01-27T13:12:46;4.0;;;3.0;;
21120;SDS011;12519;43.318;21.898;2024-01-27T13:17:22;4.0;;;3.0;;
21120;SDS011;12519;43.318;21.898;2024-01-27T13:21:59;4.0;;;4.0;;
21120;SDS011;12519;43.318;21.898;2024-01-27T13:26:35;4.0;;;4.0;;
21120;SDS011;12519;43.318;21.898;2024-01-27T13:31:11;5.0;;;5.0;;
21120;SDS011;12519;43.318;21.898;2024-01-27T13:35:48;5.0;;;5.0;;
21120;SDS011;12519;43.318;21.898;2024-01-27T13:40:24;5.0;;;5.0;;
21120;SDS011;12519;43.318;21.898;2024-01-27T13:45:00;4.0;;;4.0;;
21120;SDS011;12519;43.318;21.898;2024-01-27T13:49:37;4.0;;;4.0;;
21120;SDS011;12519;43.318;21.898;2024-01-27T13:54:14;4.0;;;4.0;;
21120;SDS011;12519;43.318;21.898;2024-01-27T13:58:50;4.0;;;4.0;;
21120;SDS011;12519;43.318;21.898;2024-01-27T14:03:27;5.0;;;5.0;;
21120;SDS011;12519;43.318;21.898;2024-01-27T14:08:03;5.0;;;5.0;;
21120;SDS011;12519;43.318;21.898;2024-01-27T14:12:41;6.0;;;6.0;;
21120;SDS011;12519;43.318;21.898;2024-01-27T14:17:17;6.0;;;6.0;;
21120;SDS011;12519;43.318;21.898;2024-01-27T14:21:54;8.0;;;7.0;;
21120;SDS011;12519;43.318;21.898;2024-01-27T14:26:30;8.0;;;7.0;;
21120;SDS011;12519;43.318;21.898;2024-01-27T14:31:07;10.0;;;8.0;;
21120;SDS011;12519;43.318;21.898;2024-01-27T14:35:43;10.0;;;8.0;;
21120;SDS011;12519;43.318;21.898;2024-01-27T14:40:19;10.0;;;8.0;;
21120;SDS011;12519;43.318;21.898;2024-01-27T14:44:56;9.0;;;8.0;;
21120;SDS011;12519;43.318;21.898;2024-01-27T14:49:32;9.0;;;8.0;;
21120;SDS011;12519;43.318;21.898;2024-01-27T14:54:09;8.0;;;8.0;;
21120;SDS011;12519;43.318;21.898;2024-01-27T14:58:45;8.0;;;8.0;;
21120;SDS011;12519;43.318;21.898;2024-01-27T15:03:21;10.0;;;8.0;;
21120;SDS011;12519;43.318;21.898;2024-01-27T15:07:59;10.0;;;8.0;;
21120;SDS011;12519;43.318;21.898;2024-01-27T15:12:36;11.0;;;8.0;;
21120;SDS011;12519;43.318;21.898;2024-01-27T15:17:12;11.0;;;8.0;;
21120;SDS011;12519;43.318;21.898;2024-01-27T15:21:48;11.0;;;8.0;;
21120;SDS011;12519;43.318;21.898;2024-01-27T15:26:24;11.0;;;8.0;;
21120;SDS011;12519;43.318;21.898;2024-01-27T15:31:00;11.0;;;9.0;;
21120;SDS011;12519;43.318;21.898;2024-01-27T15:35:36;11.0;;;9.0;;
21120;SDS011;12519;43.318;21.898;2024-01-27T15:40:14;11.0;;;9.0;;
21120;SDS011;12519;43.318;21.898;2024-01-27T15:44:50;12.0;;;10.0;;
21120;SDS011;12519;43.318;21.898;2024-01-27T15:49:26;12.0;;;10.0;;
21120;SDS011;12519;43.318;21.898;2024-01-27T15:54:03;13.0;;;12.0;;
21120;SDS011;12519;43.318;21.898;2024-01-27T15:58:39;13.0;;;12.0;;
21120;SDS011;12519;43.318;21.898;2024-01-27T16:03:15;10.0;;;9.0;;
21120;SDS011;12519;43.318;21.898;2024-01-27T16:07:51;10.0;;;9.0;;
21120;SDS011;12519;43.318;21.898;2024-01-27T16:12:27;6.0;;;6.0;;
21120;SDS011;12519;43.318;21.898;2024-01-27T16:17:05;6.0;;;6.0;;
21120;SDS011;12519;43.318;21.898;2024-01-27T16:21:41;8.0;;;7.0;;
21120;SDS011;12519;43.318;21.898;2024-01-27T16:26:17;8.0;;;7.0;;
21120;SDS011;12519;43.318;21.898;2024-01-27T16:30:54;8.0;;;7.0;;
21120;SDS011;12519;43.318;21.898;2024-01-27T16:35:30;9.0;;;8.0;;
21120;SDS011;12519;43.318;21.898;2024-01-27T16:40:06;9.0;;;8.0;;
21120;SDS011;12519;43.318;21.898;2024-01-27T16:44:44;13.0;;;9.0;;
21120;SDS011;12519;43.318;21.898;2024-01-27T16:49:20;13.0;;;9.0;;
21120;SDS011;12519;43.318;21.898;2024-01-27T16:53:56;17.0;;;10.0;;
21120;SDS011;12519;43.318;21.898;2024-01-27T16:58:32;17.0;;;10.0;;
21120;SDS011;12519;43.318;21.898;2024-01-27T17:03:07;21.0;;;14.0;;
21120;SDS011;12519;43.318;21.898;2024-01-27T17:07:43;21.0;;;14.0;;
21120;SDS011;12519;43.318;21.898;2024-01-27T17:12:19;25.0;;;18.0;;
21120;SDS011;12519;43.318;21.898;2024-01-27T17:16:56;25.0;;;18.0;;
21120;SDS011;12519;43.318;21.898;2024-01-27T17:21:32;22.0;;;16.0;;
21120;SDS011;12519;43.318;21.898;2024-01-27T17:26:08;22.0;;;16.0;;
21120;SDS011;12519;43.318;21.898;2024-01-27T17:30:44;22.0;;;16.0;;
21120;SDS011;12519;43.318;21.898;2024-01-27T17:35:20;19.0;;;13.0;;
21120;SDS011;12519;43.318;21.898;2024-01-27T17:39:57;19.0;;;13.0;;
21120;SDS011;12519;43.318;21.898;2024-01-27T17:44:35;22.0;;;17.0;;
21120;SDS011;12519;43.318;21.898;2024-01-27T17:49:11;22.0;;;17.0;;
21120;SDS011;12519;43.318;21.898;2024-01-27T17:53:48;25.0;;;21.0;;
21120;SDS011;12519;43.318;21.898;2024-01-27T17:58:24;25.0;;;21.0;;
21120;SDS011;12519;43.318;21.898;2024-01-27T18:03:01;24.0;;;20.0;;
21120;SDS011;12519;43.318;21.898;2024-01-27T18:07:38;24.0;;;20.0;;
21120;SDS011;12519;43.318;21.898;2024-01-27T18:12:14;22.0;;;20.0;;
21120;SDS011;12519;43.318;21.898;2024-01-27T18:16:50;22.0;;;20.0;;
21120;SDS011;12519;43.318;21.898;2024-01-27T18:21:26;24.0;;;20.0;;
21120;SDS011;12519;43.318;21.898;2024-01-27T18:26:03;24.0;;;20.0;;
21120;SDS011;12519;43.318;21.898;2024-01-27T18:30:39;24.0;;;20.0;;
21120;SDS011;12519;43.318;21.898;2024-01-27T18:35:15;25.0;;;20.0;;
21120;SDS011;12519;43.318;21.898;2024-01-27T18:39:52;25.0;;;20.0;;
21120;SDS011;12519;43.318;21.898;2024-01-27T18:44:29;30.0;;;22.0;;
21120;SDS011;12519;43.318;21.898;2024-01-27T18:49:05;30.0;;;22.0;;
21120;SDS011;12519;43.318;21.898;2024-01-27T18:53:42;34.0;;;24.0;;
21120;SDS011;12519;43.318;21.898;2024-01-27T18:58:18;34.0;;;24.0;;
21120;SDS011;12519;43.318;21.898;2024-01-27T19:02:54;23.0;;;18.0;;
21120;SDS011;12519;43.318;21.898;2024-01-27T19:07:30;23.0;;;18.0;;
21120;SDS011;12519;43.318;21.898;2024-01-27T19:12:06;12.0;;;12.0;;
21120;SDS011;12519;43.318;21.898;2024-01-27T19:16:44;12.0;;;12.0;;
21120;SDS011;12519;43.318;21.898;2024-01-27T19:21:20;12.0;;;12.0;;
21120;SDS011;12519;43.318;21.898;2024-01-27T19:25:56;10.0;;;10.0;;
21120;SDS011;12519;43.318;21.898;2024-01-27T19:30:32;10.0;;;10.0;;
21120;SDS011;12519;43.318;21.898;2024-01-27T19:35:09;9.0;;;8.0;;
21120;SDS011;12519;43.318;21.898;2024-01-27T19:39:45;9.0;;;8.0;;
21120;SDS011;12519;43.318;21.898;2024-01-27T19:44:21;10.0;;;9.0;;
21120;SDS011;12519;43.318;21.898;2024-01-27T19:48:58;10.0;;;9.0;;
21120;SDS011;12519;43.318;21.898;2024-01-27T19:53:34;11.0;;;10.0;;
21120;SDS011;12519;43.318;21.898;2024-01-27T19:58:11;11.0;;;10.0;;
21120;SDS011;12519;43.318;21.898;2024-01-27T20:02:47;10.0;;;8.0;;
21120;SDS011;12519;43.318;21.898;2024-01-27T20:07:23;10.0;;;8.0;;
21120;SDS011;12519;43.318;21.898;2024-01-27T20:11:59;8.0;;;6.0;;
21120;SDS011;12519;43.318;21.898;2024-01-27T20:16:36;8.0;;;6.0;;
21120;SDS011;12519;43.318;21.898;2024-01-27T20:21:12;8.0;;;6.0;;
21120;SDS011;12519;43.318;21.898;2024-01-27T20:25:49;10.0;;;8.0;;
21120;SDS011;12519;43.318;21.898;2024-01-27T20:30:25;10.0;;;8.0;;
21120;SDS011;12519;43.318;21.898;2024-01-27T20:35:02;11.0;;;9.0;;
21120;SDS011;12519;43.318;21.898;2024-01-27T20:39:43;11.0;;;9.0;;
21120;SDS011;12519;43.318;21.898;2024-01-27T20:44:19;10.0;;;8.0;;
21120;SDS011;12519;43.318;21.898;2024-01-27T20:48:55;10.0;;;8.0;;
21120;SDS011;12519;43.318;21.898;2024-01-27T20:53:31;9.0;;;8.0;;
21120;SDS011;12519;43.318;21.898;2024-01-27T20:58:07;9.0;;;8.0;;
21120;SDS011;12519;43.318;21.898;2024-01-27T21:02:43;9.0;;;8.0;;
21120;SDS011;12519;43.318;21.898;2024-01-27T21:07:20;9.0;;;8.0;;
21120;SDS011;12519;43.318;21.898;2024-01-27T21:11:56;9.0;;;7.0;;
21120;SDS011;12519;43.318;21.898;2024-01-27T21:16:32;9.0;;;7.0;;
21120;SDS011;12519;43.318;21.898;2024-01-27T21:21:08;9.0;;;7.0;;
21120;SDS011;12519;43.318;21.898;2024-01-27T21:25:44;8.0;;;7.0;;
21120;SDS011;12519;43.318;21.898;2024-01-27T21:30:20;8.0;;;7.0;;
21120;SDS011;12519;43.318;21.898;2024-01-27T21:34:57;8.0;;;7.0;;
21120;SDS011;12519;43.318;21.898;2024-01-27T21:39:33;8.0;;;7.0;;
21120;SDS011;12519;43.318;21.898;2024-01-27T21:44:09;10.0;;;8.0;;
21120;SDS011;12519;43.318;21.898;2024-01-27T21:48:45;10.0;;;8.0;;
21120;SDS011;12519;43.318;21.898;2024-01-27T21:53:21;12.0;;;9.0;;
21120;SDS011;12519;43.318;21.898;2024-01-27T21:57:57;12.0;;;9.0;;
21120;SDS011;12519;43.318;21.898;2024-01-27T22:02:34;10.0;;;8.0;;
21120;SDS011;12519;43.318;21.898;2024-01-27T22:07:10;10.0;;;8.0;;
21120;SDS011;12519;43.318;21.898;2024-01-27T22:11:46;7.0;;;6.0;;
21120;SDS011;12519;43.318;21.898;2024-01-27T22:16:22;7.0;;;6.0;;
21120;SDS011;12519;43.318;21.898;2024-01-27T22:20:58;7.0;;;6.0;;
21120;SDS011;12519;43.318;21.898;2024-01-27T22:25:34;7.0;;;6.0;;
21120;SDS011;12519;43.318;21.898;2024-01-27T22:30:10;7.0;;;6.0;;
21120;SDS011;12519;43.318;21.898;2024-01-27T22:34:49;7.0;;;7.0;;
21120;SDS011;12519;43.318;21.898;2024-01-27T22:39:25;7.0;;;7.0;;
21120;SDS011;12519;43.318;21.898;2024-01-27T22:44:01;8.0;;;7.0;;
21120;SDS011;12519;43.318;21.898;2024-01-27T22:48:37;8.0;;;7.0;;
21120;SDS011;12519;43.318;21.898;2024-01-27T22:53:13;8.0;;;7.0;;
21120;SDS011;12519;43.318;21.898;2024-01-27T22:57:50;8.0;;;7.0;;
21120;SDS011;12519;43.318;21.898;2024-01-27T23:02:27;7.0;;;6.0;;
21120;SDS011;12519;43.318;21.898;2024-01-27T23:07:03;7.0;;;6.0;;
21120;SDS011;12519;43.318;21.898;2024-01-27T23:11:40;7.0;;;6.0;;
21120;SDS011;12519;43.318;21.898;2024-01-27T23:16:16;6.0;;;6.0;;
21120;SDS011;12519;43.318;21.898;2024-01-27T23:20:52;6.0;;;6.0;;
21120;SDS011;12519;43.318;21.898;2024-01-27T23:25:28;6.0;;;6.0;;
21120;SDS011;12519;43.318;21.898;2024-01-27T23:30:05;6.0;;;6.0;;
21120;SDS011;12519;43.318;21.898;2024-01-27T23:34:43;5.0;;;5.0;;
21120;SDS011;12519;43.318;21.898;2024-01-27T23:39:18;5.0;;;5.0;;
21120;SDS011;12519;43.318;21.898;2024-01-27T23:43:54;8.0;;;6.0;;
21120;SDS011;12519;43.318;21.898;2024-01-27T23:48:30;8.0;;;6.0;;
21120;SDS011;12519;43.318;21.898;2024-01-27T23:53:06;11.0;;;7.0;;
21120;SDS011;12519;43.318;21.898;2024-01-27T23:57:42;11.0;;;7.0;;
